sensor_id;sensor_type;location;lat;lon;timestamp;temperature;humidity
38333;DHT22;25748;46.670;14.272;2023-08-17T00:01:27;16.80;69.40
38333;DHT22;25748;46.670;14.272;2023-08-17T00:03:53;16.80;69.40
38333;DHT22;25748;46.670;14.272;2023-08-17T00:06:18;16.80;70.00
38333;DHT22;25748;46.670;14.272;2023-08-17T00:08:44;16.70;70.00
38333;DHT22;25748;46.670;14.272;2023-08-17T00:11:10;16.70;70.00
38333;DHT22;25748;46.670;14.272;2023-08-17T00:13:35;16.70;70.10
38333;DHT22;25748;46.670;14.272;2023-08-17T00:16:01;16.70;70.00
38333;DHT22;25748;46.670;14.272;2023-08-17T00:18:27;16.70;70.10
38333;DHT22;25748;46.670;14.272;2023-08-17T00:20:53;16.60;70.20
38333;DHT22;25748;46.670;14.272;2023-08-17T00:23:18;16.60;70.60
38333;DHT22;25748;46.670;14.272;2023-08-17T00:25:46;16.60;72.10
38333;DHT22;25748;46.670;14.272;2023-08-17T00:28:13;16.60;71.90
38333;DHT22;25748;46.670;14.272;2023-08-17T00:30:39;16.60;71.90
38333;DHT22;25748;46.670;14.272;2023-08-17T00:33:05;16.60;71.80
38333;DHT22;25748;46.670;14.272;2023-08-17T00:35:31;16.60;72.00
38333;DHT22;25748;46.670;14.272;2023-08-17T00:37:58;16.50;71.90
38333;DHT22;25748;46.670;14.272;2023-08-17T00:40:23;16.50;72.10
38333;DHT22;25748;46.670;14.272;2023-08-17T00:42:49;16.50;71.90
38333;DHT22;25748;46.670;14.272;2023-08-17T00:45:15;16.50;72.30
38333;DHT22;25748;46.670;14.272;2023-08-17T00:47:41;16.40;71.90
38333;DHT22;25748;46.670;14.272;2023-08-17T00:50:07;16.40;71.90
38333;DHT22;25748;46.670;14.272;2023-08-17T00:52:34;16.40;72.10
38333;DHT22;25748;46.670;14.272;2023-08-17T00:55:00;16.40;72.20
38333;DHT22;25748;46.670;14.272;2023-08-17T00:57:27;16.40;72.30
38333;DHT22;25748;46.670;14.272;2023-08-17T00:59:53;16.30;72.30
38333;DHT22;25748;46.670;14.272;2023-08-17T01:02:19;16.30;72.40
38333;DHT22;25748;46.670;14.272;2023-08-17T01:04:44;16.30;72.20
38333;DHT22;25748;46.670;14.272;2023-08-17T01:07:10;16.30;72.30
38333;DHT22;25748;46.670;14.272;2023-08-17T01:09:36;16.30;72.60
38333;DHT22;25748;46.670;14.272;2023-08-17T01:12:17;16.30;72.80
38333;DHT22;25748;46.670;14.272;2023-08-17T01:14:50;16.30;72.90
38333;DHT22;25748;46.670;14.272;2023-08-17T01:17:26;16.30;73.70
38333;DHT22;25748;46.670;14.272;2023-08-17T01:19:54;16.30;73.80
38333;DHT22;25748;46.670;14.272;2023-08-17T01:22:21;16.20;73.90
38333;DHT22;25748;46.670;14.272;2023-08-17T01:24:48;16.20;73.90
38333;DHT22;25748;46.670;14.272;2023-08-17T01:27:14;16.20;73.70
38333;DHT22;25748;46.670;14.272;2023-08-17T01:29:39;16.20;73.70
38333;DHT22;25748;46.670;14.272;2023-08-17T01:32:18;16.10;73.20
38333;DHT22;25748;46.670;14.272;2023-08-17T01:34:56;16.10;73.30
38333;DHT22;25748;46.670;14.272;2023-08-17T01:37:25;16.10;73.60
38333;DHT22;25748;46.670;14.272;2023-08-17T01:39:55;16.10;73.70
38333;DHT22;25748;46.670;14.272;2023-08-17T01:42:22;16.00;73.70
38333;DHT22;25748;46.670;14.272;2023-08-17T01:44:49;16.10;73.70
38333;DHT22;25748;46.670;14.272;2023-08-17T01:47:15;16.00;73.70
38333;DHT22;25748;46.670;14.272;2023-08-17T01:49:40;15.90;73.90
38333;DHT22;25748;46.670;14.272;2023-08-17T01:52:06;15.90;73.90
38333;DHT22;25748;46.670;14.272;2023-08-17T01:54:32;15.90;74.00
38333;DHT22;25748;46.670;14.272;2023-08-17T01:56:57;15.90;74.10
38333;DHT22;25748;46.670;14.272;2023-08-17T01:59:23;15.90;74.10
38333;DHT22;25748;46.670;14.272;2023-08-17T02:01:49;15.90;74.20
38333;DHT22;25748;46.670;14.272;2023-08-17T02:04:15;15.90;74.20
38333;DHT22;25748;46.670;14.272;2023-08-17T02:06:41;15.90;74.40
38333;DHT22;25748;46.670;14.272;2023-08-17T02:09:08;15.80;74.40
38333;DHT22;25748;46.670;14.272;2023-08-17T02:11:34;15.80;75.00
38333;DHT22;25748;46.670;14.272;2023-08-17T02:13:59;15.80;75.10
38333;DHT22;25748;46.670;14.272;2023-08-17T02:16:25;15.80;75.60
38333;DHT22;25748;46.670;14.272;2023-08-17T02:18:51;15.80;76.10
38333;DHT22;25748;46.670;14.272;2023-08-17T02:21:16;15.80;77.00
38333;DHT22;25748;46.670;14.272;2023-08-17T02:23:42;15.70;77.90
38333;DHT22;25748;46.670;14.272;2023-08-17T02:26:08;15.70;78.70
38333;DHT22;25748;46.670;14.272;2023-08-17T02:28:33;15.80;78.40
38333;DHT22;25748;46.670;14.272;2023-08-17T02:30:59;15.70;78.20
38333;DHT22;25748;46.670;14.272;2023-08-17T02:33:25;15.80;78.20
38333;DHT22;25748;46.670;14.272;2023-08-17T02:35:51;15.80;78.10
38333;DHT22;25748;46.670;14.272;2023-08-17T02:38:17;15.80;78.10
38333;DHT22;25748;46.670;14.272;2023-08-17T02:40:42;15.80;77.90
38333;DHT22;25748;46.670;14.272;2023-08-17T02:43:08;15.70;77.80
38333;DHT22;25748;46.670;14.272;2023-08-17T02:45:34;15.80;77.80
38333;DHT22;25748;46.670;14.272;2023-08-17T02:48:00;15.80;78.00
38333;DHT22;25748;46.670;14.272;2023-08-17T02:50:26;15.80;77.60
38333;DHT22;25748;46.670;14.272;2023-08-17T02:52:53;15.80;77.40
38333;DHT22;25748;46.670;14.272;2023-08-17T02:55:31;15.70;77.00
38333;DHT22;25748;46.670;14.272;2023-08-17T02:57:59;15.70;76.90
38333;DHT22;25748;46.670;14.272;2023-08-17T03:00:25;15.60;76.80
38333;DHT22;25748;46.670;14.272;2023-08-17T03:02:51;15.60;76.80
38333;DHT22;25748;46.670;14.272;2023-08-17T03:05:16;15.60;76.70
38333;DHT22;25748;46.670;14.272;2023-08-17T03:07:42;15.60;76.70
38333;DHT22;25748;46.670;14.272;2023-08-17T03:10:08;15.60;76.80
38333;DHT22;25748;46.670;14.272;2023-08-17T03:12:33;15.50;76.80
38333;DHT22;25748;46.670;14.272;2023-08-17T03:14:59;15.50;76.80
38333;DHT22;25748;46.670;14.272;2023-08-17T03:17:25;15.50;76.80
38333;DHT22;25748;46.670;14.272;2023-08-17T03:19:50;15.50;76.90
38333;DHT22;25748;46.670;14.272;2023-08-17T03:22:16;15.50;77.10
38333;DHT22;25748;46.670;14.272;2023-08-17T03:24:42;15.50;77.20
38333;DHT22;25748;46.670;14.272;2023-08-17T03:27:07;15.50;77.40
38333;DHT22;25748;46.670;14.272;2023-08-17T03:29:33;15.50;77.10
38333;DHT22;25748;46.670;14.272;2023-08-17T03:31:59;15.50;77.30
38333;DHT22;25748;46.670;14.272;2023-08-17T03:34:24;15.40;77.70
38333;DHT22;25748;46.670;14.272;2023-08-17T03:36:50;15.40;78.10
38333;DHT22;25748;46.670;14.272;2023-08-17T03:39:16;15.40;78.10
38333;DHT22;25748;46.670;14.272;2023-08-17T03:41:41;15.40;78.00
38333;DHT22;25748;46.670;14.272;2023-08-17T03:44:08;15.40;78.00
38333;DHT22;25748;46.670;14.272;2023-08-17T03:46:35;15.40;78.00
38333;DHT22;25748;46.670;14.272;2023-08-17T03:49:00;15.40;78.00
38333;DHT22;25748;46.670;14.272;2023-08-17T03:51:26;15.40;77.90
38333;DHT22;25748;46.670;14.272;2023-08-17T03:53:51;15.40;78.10
38333;DHT22;25748;46.670;14.272;2023-08-17T03:56:18;15.40;78.10
38333;DHT22;25748;46.670;14.272;2023-08-17T03:58:43;15.40;77.90
38333;DHT22;25748;46.670;14.272;2023-08-17T04:01:09;15.40;77.90
38333;DHT22;25748;46.670;14.272;2023-08-17T04:03:53;15.40;77.80
38333;DHT22;25748;46.670;14.272;2023-08-17T04:06:19;15.40;77.80
38333;DHT22;25748;46.670;14.272;2023-08-17T04:08:44;15.30;77.60
38333;DHT22;25748;46.670;14.272;2023-08-17T04:11:11;15.30;77.70
38333;DHT22;25748;46.670;14.272;2023-08-17T04:13:37;15.30;77.90
38333;DHT22;25748;46.670;14.272;2023-08-17T04:16:02;15.30;77.90
38333;DHT22;25748;46.670;14.272;2023-08-17T04:18:28;15.30;78.10
38333;DHT22;25748;46.670;14.272;2023-08-17T04:20:54;15.30;78.70
38333;DHT22;25748;46.670;14.272;2023-08-17T04:23:19;15.30;78.60
38333;DHT22;25748;46.670;14.272;2023-08-17T04:25:46;15.30;79.40
38333;DHT22;25748;46.670;14.272;2023-08-17T04:28:12;15.40;79.60
38333;DHT22;25748;46.670;14.272;2023-08-17T04:30:38;15.40;80.40
38333;DHT22;25748;46.670;14.272;2023-08-17T04:33:04;15.40;80.60
38333;DHT22;25748;46.670;14.272;2023-08-17T04:35:30;15.50;80.80
38333;DHT22;25748;46.670;14.272;2023-08-17T04:37:56;15.50;81.00
38333;DHT22;25748;46.670;14.272;2023-08-17T04:40:22;15.60;82.20
38333;DHT22;25748;46.670;14.272;2023-08-17T04:42:47;15.60;82.30
38333;DHT22;25748;46.670;14.272;2023-08-17T04:45:13;15.70;82.60
38333;DHT22;25748;46.670;14.272;2023-08-17T04:47:39;15.80;83.60
38333;DHT22;25748;46.670;14.272;2023-08-17T04:50:05;15.80;83.50
38333;DHT22;25748;46.670;14.272;2023-08-17T04:52:31;15.90;84.10
38333;DHT22;25748;46.670;14.272;2023-08-17T04:54:57;15.90;84.80
38333;DHT22;25748;46.670;14.272;2023-08-17T04:57:23;16.00;85.60
38333;DHT22;25748;46.670;14.272;2023-08-17T04:59:48;16.10;85.80
38333;DHT22;25748;46.670;14.272;2023-08-17T05:02:14;16.10;85.80
38333;DHT22;25748;46.670;14.272;2023-08-17T05:04:40;16.20;86.00
38333;DHT22;25748;46.670;14.272;2023-08-17T05:07:05;16.30;85.90
38333;DHT22;25748;46.670;14.272;2023-08-17T05:09:31;16.40;85.90
38333;DHT22;25748;46.670;14.272;2023-08-17T05:11:57;16.50;85.60
38333;DHT22;25748;46.670;14.272;2023-08-17T05:14:23;16.50;84.70
38333;DHT22;25748;46.670;14.272;2023-08-17T05:16:49;16.60;84.50
38333;DHT22;25748;46.670;14.272;2023-08-17T05:19:14;16.60;83.70
38333;DHT22;25748;46.670;14.272;2023-08-17T05:21:40;16.60;83.60
38333;DHT22;25748;46.670;14.272;2023-08-17T05:24:06;16.70;83.60
38333;DHT22;25748;46.670;14.272;2023-08-17T05:26:31;16.70;83.00
38333;DHT22;25748;46.670;14.272;2023-08-17T05:28:57;16.70;82.80
38333;DHT22;25748;46.670;14.272;2023-08-17T05:31:23;16.70;82.80
38333;DHT22;25748;46.670;14.272;2023-08-17T05:33:49;16.70;83.60
38333;DHT22;25748;46.670;14.272;2023-08-17T05:36:14;16.70;83.50
38333;DHT22;25748;46.670;14.272;2023-08-17T05:38:40;16.80;84.10
38333;DHT22;25748;46.670;14.272;2023-08-17T05:41:06;16.80;84.60
38333;DHT22;25748;46.670;14.272;2023-08-17T05:43:33;16.90;85.10
38333;DHT22;25748;46.670;14.272;2023-08-17T05:45:58;17.10;85.60
38333;DHT22;25748;46.670;14.272;2023-08-17T05:48:28;17.20;85.20
38333;DHT22;25748;46.670;14.272;2023-08-17T05:50:55;17.40;85.30
38333;DHT22;25748;46.670;14.272;2023-08-17T05:53:21;17.50;82.70
38333;DHT22;25748;46.670;14.272;2023-08-17T05:55:46;17.60;82.70
38333;DHT22;25748;46.670;14.272;2023-08-17T05:58:12;17.70;81.90
38333;DHT22;25748;46.670;14.272;2023-08-17T06:00:38;17.90;79.80
38333;DHT22;25748;46.670;14.272;2023-08-17T06:03:04;17.90;78.60
38333;DHT22;25748;46.670;14.272;2023-08-17T06:05:30;18.10;79.30
38333;DHT22;25748;46.670;14.272;2023-08-17T06:07:56;18.20;79.10
38333;DHT22;25748;46.670;14.272;2023-08-17T06:10:23;18.50;78.40
38333;DHT22;25748;46.670;14.272;2023-08-17T06:12:52;18.60;77.60
38333;DHT22;25748;46.670;14.272;2023-08-17T06:15:18;18.90;77.80
38333;DHT22;25748;46.670;14.272;2023-08-17T06:17:43;19.10;74.70
38333;DHT22;25748;46.670;14.272;2023-08-17T06:20:10;19.30;74.40
38333;DHT22;25748;46.670;14.272;2023-08-17T06:22:35;19.20;73.90
38333;DHT22;25748;46.670;14.272;2023-08-17T06:25:01;18.90;74.20
38333;DHT22;25748;46.670;14.272;2023-08-17T06:27:27;18.90;74.30
38333;DHT22;25748;46.670;14.272;2023-08-17T06:29:52;18.90;73.30
38333;DHT22;25748;46.670;14.272;2023-08-17T06:32:18;19.20;74.40
38333;DHT22;25748;46.670;14.272;2023-08-17T06:34:44;19.40;73.60
38333;DHT22;25748;46.670;14.272;2023-08-17T06:37:09;19.50;72.10
38333;DHT22;25748;46.670;14.272;2023-08-17T06:39:35;19.30;72.50
38333;DHT22;25748;46.670;14.272;2023-08-17T06:42:01;19.30;72.60
38333;DHT22;25748;46.670;14.272;2023-08-17T06:44:26;19.30;71.90
38333;DHT22;25748;46.670;14.272;2023-08-17T06:46:52;19.20;72.10
38333;DHT22;25748;46.670;14.272;2023-08-17T06:49:18;19.20;71.60
38333;DHT22;25748;46.670;14.272;2023-08-17T06:51:43;19.20;71.90
38333;DHT22;25748;46.670;14.272;2023-08-17T06:54:09;19.20;72.60
38333;DHT22;25748;46.670;14.272;2023-08-17T06:56:35;19.30;72.20
38333;DHT22;25748;46.670;14.272;2023-08-17T06:59:01;19.40;71.90
38333;DHT22;25748;46.670;14.272;2023-08-17T07:01:26;19.60;71.90
38333;DHT22;25748;46.670;14.272;2023-08-17T07:03:52;19.60;71.90
38333;DHT22;25748;46.670;14.272;2023-08-17T07:06:18;19.90;71.60
38333;DHT22;25748;46.670;14.272;2023-08-17T07:08:43;20.10;71.80
38333;DHT22;25748;46.670;14.272;2023-08-17T07:11:09;20.20;70.40
38333;DHT22;25748;46.670;14.272;2023-08-17T07:13:35;20.20;70.30
38333;DHT22;25748;46.670;14.272;2023-08-17T07:16:00;20.50;68.80
38333;DHT22;25748;46.670;14.272;2023-08-17T07:18:26;20.70;69.00
38333;DHT22;25748;46.670;14.272;2023-08-17T07:20:52;20.70;68.20
38333;DHT22;25748;46.670;14.272;2023-08-17T07:23:17;20.80;68.70
38333;DHT22;25748;46.670;14.272;2023-08-17T07:25:43;21.00;68.70
38333;DHT22;25748;46.670;14.272;2023-08-17T07:28:09;21.30;69.80
38333;DHT22;25748;46.670;14.272;2023-08-17T07:30:35;21.50;68.30
38333;DHT22;25748;46.670;14.272;2023-08-17T07:33:01;21.60;66.50
38333;DHT22;25748;46.670;14.272;2023-08-17T07:35:26;21.80;66.40
38333;DHT22;25748;46.670;14.272;2023-08-17T07:37:52;22.00;67.90
38333;DHT22;25748;46.670;14.272;2023-08-17T07:40:18;22.40;66.30
38333;DHT22;25748;46.670;14.272;2023-08-17T07:42:45;22.60;63.80
38333;DHT22;25748;46.670;14.272;2023-08-17T07:45:11;22.70;62.20
38333;DHT22;25748;46.670;14.272;2023-08-17T07:47:37;22.50;61.90
38333;DHT22;25748;46.670;14.272;2023-08-17T07:50:04;22.80;65.20
38333;DHT22;25748;46.670;14.272;2023-08-17T07:52:30;22.80;61.30
38333;DHT22;25748;46.670;14.272;2023-08-17T07:54:55;23.10;60.60
38333;DHT22;25748;46.670;14.272;2023-08-17T07:57:21;22.70;60.30
38333;DHT22;25748;46.670;14.272;2023-08-17T07:59:47;22.70;60.50
38333;DHT22;25748;46.670;14.272;2023-08-17T08:02:13;22.80;60.50
38333;DHT22;25748;46.670;14.272;2023-08-17T08:04:38;23.00;60.20
38333;DHT22;25748;46.670;14.272;2023-08-17T08:07:04;22.70;58.80
38333;DHT22;25748;46.670;14.272;2023-08-17T08:09:30;22.80;59.90
38333;DHT22;25748;46.670;14.272;2023-08-17T08:11:55;23.20;59.60
38333;DHT22;25748;46.670;14.272;2023-08-17T08:14:21;23.20;59.40
38333;DHT22;25748;46.670;14.272;2023-08-17T08:16:47;23.40;59.20
38333;DHT22;25748;46.670;14.272;2023-08-17T08:19:13;23.20;58.80
38333;DHT22;25748;46.670;14.272;2023-08-17T08:21:38;23.40;59.10
38333;DHT22;25748;46.670;14.272;2023-08-17T08:24:04;23.40;59.10
38333;DHT22;25748;46.670;14.272;2023-08-17T08:26:30;23.30;58.60
38333;DHT22;25748;46.670;14.272;2023-08-17T08:28:55;23.30;59.10
38333;DHT22;25748;46.670;14.272;2023-08-17T08:31:21;23.30;58.50
38333;DHT22;25748;46.670;14.272;2023-08-17T08:33:47;23.40;59.10
38333;DHT22;25748;46.670;14.272;2023-08-17T08:36:12;24.00;58.80
38333;DHT22;25748;46.670;14.272;2023-08-17T08:38:38;24.50;58.90
38333;DHT22;25748;46.670;14.272;2023-08-17T08:41:05;24.90;58.30
38333;DHT22;25748;46.670;14.272;2023-08-17T08:43:33;25.20;58.20
38333;DHT22;25748;46.670;14.272;2023-08-17T08:45:59;25.60;57.30
38333;DHT22;25748;46.670;14.272;2023-08-17T08:48:26;25.50;56.00
38333;DHT22;25748;46.670;14.272;2023-08-17T08:50:54;25.80;54.90
38333;DHT22;25748;46.670;14.272;2023-08-17T08:53:27;26.00;55.00
38333;DHT22;25748;46.670;14.272;2023-08-17T08:55:59;26.10;54.60
38333;DHT22;25748;46.670;14.272;2023-08-17T08:58:27;26.50;53.90
38333;DHT22;25748;46.670;14.272;2023-08-17T09:00:54;25.60;53.70
38333;DHT22;25748;46.670;14.272;2023-08-17T09:03:21;25.60;54.50
38333;DHT22;25748;46.670;14.272;2023-08-17T09:05:50;25.70;53.90
38333;DHT22;25748;46.670;14.272;2023-08-17T09:08:20;26.20;54.20
38333;DHT22;25748;46.670;14.272;2023-08-17T09:10:46;26.00;54.10
38333;DHT22;25748;46.670;14.272;2023-08-17T09:13:12;25.50;53.70
38333;DHT22;25748;46.670;14.272;2023-08-17T09:15:38;25.40;54.50
38333;DHT22;25748;46.670;14.272;2023-08-17T09:18:05;25.30;54.40
38333;DHT22;25748;46.670;14.272;2023-08-17T09:20:45;25.50;54.20
38333;DHT22;25748;46.670;14.272;2023-08-17T09:23:16;25.80;54.80
38333;DHT22;25748;46.670;14.272;2023-08-17T09:25:44;25.70;53.10
38333;DHT22;25748;46.670;14.272;2023-08-17T09:28:11;25.40;53.40
38333;DHT22;25748;46.670;14.272;2023-08-17T09:33:28;25.90;53.70
38333;DHT22;25748;46.670;14.272;2023-08-17T09:35:55;26.30;53.20
38333;DHT22;25748;46.670;14.272;2023-08-17T09:38:21;26.60;53.40
38333;DHT22;25748;46.670;14.272;2023-08-17T09:40:48;26.20;52.50
38333;DHT22;25748;46.670;14.272;2023-08-17T09:43:18;26.40;52.90
38333;DHT22;25748;46.670;14.272;2023-08-17T09:45:44;26.10;52.40
38333;DHT22;25748;46.670;14.272;2023-08-17T09:48:14;25.90;52.80
38333;DHT22;25748;46.670;14.272;2023-08-17T09:50:44;26.20;53.60
38333;DHT22;25748;46.670;14.272;2023-08-17T09:53:14;26.30;54.20
38333;DHT22;25748;46.670;14.272;2023-08-17T09:55:41;26.20;53.30
38333;DHT22;25748;46.670;14.272;2023-08-17T09:58:08;26.10;53.60
38333;DHT22;25748;46.670;14.272;2023-08-17T10:00:34;26.20;53.30
38333;DHT22;25748;46.670;14.272;2023-08-17T10:03:02;26.50;53.60
38333;DHT22;25748;46.670;14.272;2023-08-17T10:05:31;26.80;53.40
38333;DHT22;25748;46.670;14.272;2023-08-17T10:08:00;26.90;52.70
38333;DHT22;25748;46.670;14.272;2023-08-17T10:10:29;26.80;51.40
38333;DHT22;25748;46.670;14.272;2023-08-17T10:13:23;26.40;52.00
38333;DHT22;25748;46.670;14.272;2023-08-17T10:16:02;26.70;52.70
38333;DHT22;25748;46.670;14.272;2023-08-17T10:21:24;26.90;51.30
38333;DHT22;25748;46.670;14.272;2023-08-17T10:23:53;26.50;51.50
38333;DHT22;25748;46.670;14.272;2023-08-17T10:26:19;26.60;51.40
38333;DHT22;25748;46.670;14.272;2023-08-17T10:28:45;26.60;51.90
38333;DHT22;25748;46.670;14.272;2023-08-17T10:31:12;26.90;52.00
38333;DHT22;25748;46.670;14.272;2023-08-17T10:33:38;27.20;51.70
38333;DHT22;25748;46.670;14.272;2023-08-17T10:36:07;27.40;51.50
38333;DHT22;25748;46.670;14.272;2023-08-17T10:38:33;27.50;50.70
38333;DHT22;25748;46.670;14.272;2023-08-17T10:43:52;27.50;51.00
38333;DHT22;25748;46.670;14.272;2023-08-17T10:46:18;27.90;51.60
38333;DHT22;25748;46.670;14.272;2023-08-17T10:48:44;27.90;51.00
38333;DHT22;25748;46.670;14.272;2023-08-17T10:51:09;27.70;51.20
38333;DHT22;25748;46.670;14.272;2023-08-17T10:53:39;28.10;50.90
38333;DHT22;25748;46.670;14.272;2023-08-17T10:56:11;28.00;51.70
38333;DHT22;25748;46.670;14.272;2023-08-17T10:58:37;27.60;51.00
38333;DHT22;25748;46.670;14.272;2023-08-17T11:01:03;27.90;52.00
38333;DHT22;25748;46.670;14.272;2023-08-17T11:03:29;28.20;51.20
38333;DHT22;25748;46.670;14.272;2023-08-17T11:05:56;28.50;50.40
38333;DHT22;25748;46.670;14.272;2023-08-17T11:08:34;28.70;50.30
38333;DHT22;25748;46.670;14.272;2023-08-17T11:11:09;28.50;48.90
38333;DHT22;25748;46.670;14.272;2023-08-17T11:13:37;28.80;50.40
38333;DHT22;25748;46.670;14.272;2023-08-17T11:16:04;29.00;49.30
38333;DHT22;25748;46.670;14.272;2023-08-17T11:18:30;29.00;49.00
38333;DHT22;25748;46.670;14.272;2023-08-17T11:20:56;28.70;48.60
38333;DHT22;25748;46.670;14.272;2023-08-17T11:23:23;28.30;50.40
38333;DHT22;25748;46.670;14.272;2023-08-17T11:25:49;28.00;49.60
38333;DHT22;25748;46.670;14.272;2023-08-17T11:28:16;27.90;50.60
38333;DHT22;25748;46.670;14.272;2023-08-17T11:30:42;28.20;50.30
38333;DHT22;25748;46.670;14.272;2023-08-17T11:33:08;28.20;49.20
38333;DHT22;25748;46.670;14.272;2023-08-17T11:35:35;28.40;50.60
38333;DHT22;25748;46.670;14.272;2023-08-17T11:38:00;28.40;49.30
38333;DHT22;25748;46.670;14.272;2023-08-17T11:40:27;28.70;49.80
38333;DHT22;25748;46.670;14.272;2023-08-17T11:42:54;28.80;49.50
38333;DHT22;25748;46.670;14.272;2023-08-17T11:45:20;28.90;49.10
38333;DHT22;25748;46.670;14.272;2023-08-17T11:47:47;29.20;49.00
38333;DHT22;25748;46.670;14.272;2023-08-17T11:50:14;29.30;49.40
38333;DHT22;25748;46.670;14.272;2023-08-17T11:52:40;29.30;49.30
38333;DHT22;25748;46.670;14.272;2023-08-17T11:55:07;28.80;48.90
38333;DHT22;25748;46.670;14.272;2023-08-17T11:57:36;29.00;48.70
38333;DHT22;25748;46.670;14.272;2023-08-17T12:00:04;29.40;49.40
38333;DHT22;25748;46.670;14.272;2023-08-17T12:02:31;29.40;48.30
38333;DHT22;25748;46.670;14.272;2023-08-17T12:05:03;29.50;47.70
38333;DHT22;25748;46.670;14.272;2023-08-17T12:07:32;29.80;47.70
38333;DHT22;25748;46.670;14.272;2023-08-17T12:09:57;30.00;47.70
38333;DHT22;25748;46.670;14.272;2023-08-17T12:12:23;30.10;47.50
38333;DHT22;25748;46.670;14.272;2023-08-17T12:14:49;30.30;47.80
38333;DHT22;25748;46.670;14.272;2023-08-17T12:17:19;30.50;46.90
38333;DHT22;25748;46.670;14.272;2023-08-17T12:19:49;30.50;46.90
38333;DHT22;25748;46.670;14.272;2023-08-17T12:22:16;30.60;46.40
38333;DHT22;25748;46.670;14.272;2023-08-17T12:24:42;30.40;46.70
38333;DHT22;25748;46.670;14.272;2023-08-17T12:27:09;30.60;47.20
38333;DHT22;25748;46.670;14.272;2023-08-17T12:29:46;30.70;47.30
38333;DHT22;25748;46.670;14.272;2023-08-17T12:32:14;30.50;46.80
38333;DHT22;25748;46.670;14.272;2023-08-17T12:34:40;30.80;46.80
38333;DHT22;25748;46.670;14.272;2023-08-17T12:37:08;30.50;47.40
38333;DHT22;25748;46.670;14.272;2023-08-17T12:39:35;30.80;46.50
38333;DHT22;25748;46.670;14.272;2023-08-17T12:42:01;31.00;47.10
38333;DHT22;25748;46.670;14.272;2023-08-17T12:44:27;31.10;46.90
38333;DHT22;25748;46.670;14.272;2023-08-17T12:46:53;31.00;46.90
38333;DHT22;25748;46.670;14.272;2023-08-17T12:49:18;31.00;46.30
38333;DHT22;25748;46.670;14.272;2023-08-17T12:51:44;30.80;47.00
38333;DHT22;25748;46.670;14.272;2023-08-17T12:54:10;31.00;47.20
38333;DHT22;25748;46.670;14.272;2023-08-17T12:56:35;31.10;46.10
38333;DHT22;25748;46.670;14.272;2023-08-17T12:59:01;31.10;46.10
38333;DHT22;25748;46.670;14.272;2023-08-17T13:01:27;30.80;45.90
38333;DHT22;25748;46.670;14.272;2023-08-17T13:03:52;31.10;45.80
38333;DHT22;25748;46.670;14.272;2023-08-17T13:06:18;31.00;46.20
38333;DHT22;25748;46.670;14.272;2023-08-17T13:08:44;30.90;46.30
38333;DHT22;25748;46.670;14.272;2023-08-17T13:11:10;30.80;45.40
38333;DHT22;25748;46.670;14.272;2023-08-17T13:13:36;30.70;46.40
38333;DHT22;25748;46.670;14.272;2023-08-17T13:16:03;30.60;44.80
38333;DHT22;25748;46.670;14.272;2023-08-17T13:18:29;30.30;44.80
38333;DHT22;25748;46.670;14.272;2023-08-17T13:20:54;30.50;45.00
38333;DHT22;25748;46.670;14.272;2023-08-17T13:23:20;30.50;44.70
38333;DHT22;25748;46.670;14.272;2023-08-17T13:25:46;30.70;45.10
38333;DHT22;25748;46.670;14.272;2023-08-17T13:28:12;30.90;44.40
38333;DHT22;25748;46.670;14.272;2023-08-17T13:30:40;31.00;44.30
38333;DHT22;25748;46.670;14.272;2023-08-17T13:33:06;31.20;44.20
38333;DHT22;25748;46.670;14.272;2023-08-17T13:35:33;31.00;44.50
38333;DHT22;25748;46.670;14.272;2023-08-17T13:37:58;31.20;44.10
38333;DHT22;25748;46.670;14.272;2023-08-17T13:40:24;31.20;43.90
38333;DHT22;25748;46.670;14.272;2023-08-17T13:42:50;31.10;43.70
38333;DHT22;25748;46.670;14.272;2023-08-17T13:45:16;31.30;44.40
38333;DHT22;25748;46.670;14.272;2023-08-17T13:47:42;31.30;44.00
38333;DHT22;25748;46.670;14.272;2023-08-17T13:50:08;31.10;43.00
38333;DHT22;25748;46.670;14.272;2023-08-17T13:52:34;31.00;43.10
38333;DHT22;25748;46.670;14.272;2023-08-17T13:55:00;30.70;43.10
38333;DHT22;25748;46.670;14.272;2023-08-17T13:57:25;30.60;43.30
38333;DHT22;25748;46.670;14.272;2023-08-17T13:59:51;30.50;43.00
38333;DHT22;25748;46.670;14.272;2023-08-17T14:02:18;30.50;43.20
38333;DHT22;25748;46.670;14.272;2023-08-17T14:04:45;30.60;44.50
38333;DHT22;25748;46.670;14.272;2023-08-17T14:07:10;30.60;43.30
38333;DHT22;25748;46.670;14.272;2023-08-17T14:09:36;30.60;44.00
38333;DHT22;25748;46.670;14.272;2023-08-17T14:12:02;30.70;44.30
38333;DHT22;25748;46.670;14.272;2023-08-17T14:14:29;30.80;43.70
38333;DHT22;25748;46.670;14.272;2023-08-17T14:16:55;30.80;43.70
38333;DHT22;25748;46.670;14.272;2023-08-17T14:19:20;30.90;43.80
38333;DHT22;25748;46.670;14.272;2023-08-17T14:21:46;30.80;43.00
38333;DHT22;25748;46.670;14.272;2023-08-17T14:24:12;30.60;42.50
38333;DHT22;25748;46.670;14.272;2023-08-17T14:26:38;30.60;41.70
38333;DHT22;25748;46.670;14.272;2023-08-17T14:29:03;30.60;41.60
38333;DHT22;25748;46.670;14.272;2023-08-17T14:31:29;30.50;41.90
38333;DHT22;25748;46.670;14.272;2023-08-17T14:33:54;30.30;42.30
38333;DHT22;25748;46.670;14.272;2023-08-17T14:36:20;30.20;42.50
38333;DHT22;25748;46.670;14.272;2023-08-17T14:38:46;30.20;42.20
38333;DHT22;25748;46.670;14.272;2023-08-17T14:41:12;30.10;42.70
38333;DHT22;25748;46.670;14.272;2023-08-17T14:43:38;30.10;43.00
38333;DHT22;25748;46.670;14.272;2023-08-17T14:46:03;30.00;42.90
38333;DHT22;25748;46.670;14.272;2023-08-17T14:48:29;30.00;42.30
38333;DHT22;25748;46.670;14.272;2023-08-17T14:50:55;29.90;42.20
38333;DHT22;25748;46.670;14.272;2023-08-17T14:53:21;30.00;43.00
38333;DHT22;25748;46.670;14.272;2023-08-17T14:55:47;30.00;42.50
38333;DHT22;25748;46.670;14.272;2023-08-17T14:58:12;29.90;42.20
38333;DHT22;25748;46.670;14.272;2023-08-17T15:00:39;29.90;42.10
38333;DHT22;25748;46.670;14.272;2023-08-17T15:03:04;29.80;43.00
38333;DHT22;25748;46.670;14.272;2023-08-17T15:05:30;29.70;43.30
38333;DHT22;25748;46.670;14.272;2023-08-17T15:07:56;29.70;43.10
38333;DHT22;25748;46.670;14.272;2023-08-17T15:10:22;29.70;43.20
38333;DHT22;25748;46.670;14.272;2023-08-17T15:12:48;29.70;42.80
38333;DHT22;25748;46.670;14.272;2023-08-17T15:15:14;29.50;42.50
38333;DHT22;25748;46.670;14.272;2023-08-17T15:17:40;29.50;43.00
38333;DHT22;25748;46.670;14.272;2023-08-17T15:20:06;29.40;43.30